Alesund, Norway

10:41 AM CEST on October 23, 2014 (GMT +0200)
Vigra | Change Station
CLOSE
Current Station
Airport
Location: Alesund,
Elevation: 72 ft
Nearby Weather Stations

Elev 72 ft 62.56 °N, 6.11 °E | Updated 21 minutes ago

Light Drizzle
Light Drizzle
55 °F
Feels Like 55 °F
N
18
Wind Variable Wind from South

Today
High -- | Low -- °F
--% Chance of Precip.
Yesterday
High -- | Low -- °F
Precip. -- in
8:43 AM 5:55 PM
Waning Crescent, 0% visible
Pressure 29.56 in
Visibility 6.2 miles
Clouds Mostly Cloudy 4100 ft
Dew Point 45 °F
Humidity 67%
Rainfall 0.00 in
Snow Depth Not available.
UV 0 out of 12
Pollen Not available.
Air Quality Not available.
Flu Activity Not available.
METAR ENAL 230820Z 18016KT 9999 -DZ BKN041 13/07 Q1001

More Conditions Fewer Conditions

Pressure 29.56 in
Visibility 6.2 miles
Clouds Mostly Cloudy 4100 ft
Dew Point 45 °F
Humidity 67%
Rainfall 0.00 in
Snow Depth Not available.
UV 0 out of 12
Pollen Not available.
Air Quality Not available.
Flu Activity Not available.
METAR ENAL 230820Z 18016KT 9999 -DZ BKN041 13/07 Q1001

More Conditions Fewer Conditions

10-Day Weather Forecast

Almanac

Astronomy

Oct. 23, 2014 Rise Set
Actual Time 8:43 AM CEST 5:55 PM CEST
Civil Twilight 7:55 AM CEST 6:42 PM CEST
Nautical Twilight 7:03 AM CEST 7:35 PM CEST
Astronomical Twilight 6:10 AM CEST 8:27 PM CEST
Moon 7:57 AM CEST 5:51 PM CEST
Length of Visible Light 10h 46m
Length of Day
9h 11m
Tomorrow will be 5m 59s shorter.
Waning Crescent, 0% of the Moon is Illuminated
Today
Waning Crescent
Oct 23
New
Oct 30
First Quarter
Nov 6
Full
Nov 14
Last Quarter

Yesterday's Extremes

Country Highs Country Lows

Community

WunderPhotos

Upload Photos

1,764,197 photos uploaded!

Nearby

Snow Depth

Not available.

Earthquake Activity

City Distance Mag. Time & Date
No recent earthquake activity has been reported nearby.
Minimum magnitude displayed is 2.5.

Coastal Water Temperatures

Place Temperature
No Stations Reporting

Nearby Weather Stations